Aviation Digital Data Service (ADDS)

Output produced by METARs form (0544 UTC 22 November 2017)
found at http://www.aviationweather.gov/adds/metars/
 
KUNV 220535Z AUTO 21003KT 10SM BKN060 OVC085 06/M02 A2991 RMK AO2 T00591023
KUNV 220515Z AUTO 26004KT 10SM BKN060 BKN070 BKN085 07/M03 A2991 RMK AO2 T00711027
KUNV 220455Z AUTO 24003KT 10SM SCT060 SCT070 08/M04 A2991 RMK AO2 T00811040
KUNV 220435Z AUTO 00000KT 10SM CLR 08/M04 A2992 RMK AO2 T00791040
KUNV 220415Z AUTO 24003KT 10SM SCT060 07/M04 A2992 RMK AO2 T00741036
KUNV 220355Z AUTO 00000KT 10SM CLR 07/M03 A2993 RMK AO2 T00651030 401351029
KUNV 220335Z AUTO 22004KT 10SM CLR 07/M03 A2993 RMK AO2 T00681032
KUNV 220315Z AUTO 27005KT 10SM CLR 07/M04 A2993 RMK AO2 T00681036
KUNV 220253Z 21005KT 10SM SKC 07/M04 A2993
KUNV 220153Z 25004KT 10SM SKC 08/M04 A2994
KUNV 220053Z 21005KT 10SM SKC 07/M04 A2995
KUNV 212353Z 18005KT 10SM SKC 08/M04 A2993
KUNV 212253Z 17005KT 10SM SKC 10/M04 A2992
KUNV 212153Z 18008KT 10SM SKC 12/M04 A2991
KUNV 212053Z 22009KT 10SM SKC 13/M03 A2990
KUNV 211953Z 21011G17KT 10SM SKC 13/M03 A2990
KUNV 211853Z 21011G18KT 10SM SKC 12/M03 A2991
KUNV 211753Z 19011G20KT 10SM SKC 11/M02 A2993
KUNV 211653Z 21010G20KT 10SM SKC 11/M03 A2994
KUNV 211553Z 22008G15KT 10SM SKC 10/M03 A2998
KUNV 211453Z 21005KT 10SM SKC 05/M05 A3000
KUNV 211353Z 00000KT 10SM SKC 01/M05 A3001
KUNV 211253Z 21005KT 10SM SKC M02/M05 A3001
KUNV 211153Z 00000KT 10SM SKC M02/M06 A3000
KUNV 211053Z 00000KT 10SM SKC M02/M06 A3001
KUNV 211035Z AUTO 00000KT 10SM CLR M02/M05 A3000 RMK AO2 T10211053
KUNV 211015Z AUTO 00000KT 10SM CLR 00/M06 A3000 RMK AO2 T10041060
KUNV 210955Z AUTO 00000KT 10SM CLR M02/M05 A3001 RMK AO2 T10181055
KUNV 210935Z AUTO 00000KT 10SM CLR M01/M06 A3001 RMK AO2 T10071060
KUNV 210915Z AUTO 26005KT 10SM CLR 01/M06 A3001 RMK AO2 T00051057
KUNV 210855Z AUTO 30004KT 10SM CLR 00/M06 A3001 RMK AO2 T10031056
KUNV 210835Z AUTO 00000KT 10SM CLR 00/M06 A3001 RMK AO2 T00021060
KUNV 210815Z AUTO 23003KT 10SM CLR 00/M06 A3002 RMK AO2 T00021057
KUNV 210755Z AUTO 26005KT 10SM CLR 01/M06 A3003 RMK AO2 T00071056
KUNV 210735Z AUTO 27004KT 10SM CLR 01/M06 A3003 RMK AO2 T00141057
KUNV 210715Z AUTO 27004KT 10SM CLR 01/M05 A3003 RMK AO2 T00101055
KUNV 210655Z AUTO 28006KT 10SM CLR 02/M06 A3003 RMK AO2 T00151056
KUNV 210635Z AUTO 26005KT 10SM CLR 01/M05 A3003 RMK AO2 T00091054
KUNV 210615Z AUTO 25005KT 10SM CLR 00/M05 A3004 RMK AO2 T00041053
KUNV 210555Z AUTO 26004KT 10SM CLR 01/M05 A3004 RMK AO2 T00081052 10024 21006
KUNV 210535Z AUTO 26006KT 10SM CLR 00/M05 A3005 RMK AO2 T00031051
KUNV 210515Z AUTO 26007KT 10SM CLR 01/M05 A3005 RMK AO2 T00051051
KUNV 210455Z AUTO 23008KT 10SM CLR 00/M05 A3005 RMK AO2 T00021050
KUNV 210435Z AUTO 23007KT 10SM CLR 00/M05 A3005 RMK AO2 T00031050
KUNV 210415Z AUTO 24006KT 10SM CLR 01/M05 A3006 RMK AO2 T00101050
KUNV 210355Z AUTO 23008KT 10SM CLR 00/M05 A3006 RMK AO2 T00041049 400661012
KUNV 210335Z AUTO 23008KT 10SM CLR 01/M05 A3006 RMK AO2 T00061048
KUNV 210315Z AUTO 23006KT 10SM CLR 01/M05 A3006 RMK AO2 T00071047
KUNV 210253Z 25005KT 10SM SKC 01/M05 A3006
KUNV 210153Z 25005KT 10SM SKC 02/M05 A3007
KUNV 210053Z 24005KT 10SM SKC 02/M05 A3007
KUNV 202353Z 24008KT 10SM SKC 01/M05 A3007
KUNV 202253Z 24010KT 10SM SKC 03/M05 A3006
KUNV 202153Z 24010KT 10SM SKC 04/M05 A3005
KUNV 202053Z 24010G18KT 10SM SKC 06/M04 A3006
KUNV 201953Z 26010KT 10SM SKC 06/M04 A3005
KUNV 201853Z 26015KT 10SM SKC 06/M04 A3005
KUNV 201753Z 26015KT 10SM SKC 05/M04 A3005